Estevan Airport
CYEN : now visible

Airfield :











YOU CAN JOIN US ON...

 
LOGIN :

Register | Disclaimer

   EN    FR    IT 

 









Legend :    VFR   Marginal VFR   IFR   Intensive IFR   Very Intensive IFR
Visi :
Ceiling :
>= 8 km
>= 3000ft
5 to 8 km
1000 to 3000 ft
1500m to 5 km
500 to 1000 ft
800 to 1500m
200 to 500 ft
< 800m
< 200 ft
Symbols :   Thunderstorms  Fog  Heavy snow  Heavy precipitations  Wind > 20 kt






- Airport Elevation : 1905 ft
- IATA code : YEN


CYEN - Estevan

CURRENT METAR :
  • 290700Z AUTO 31005KT 4SM -RA BR OVC006 13/13 A2949 RMK SLP992 DENSITY ALT 2700FT

EXPIRED METARs :
  • 290644Z AUTO 31004KT 5SM -RA BR BKN006 BKN029 OVC038 13/13 A2950 RMK SLP998 DENSITY ALT 2700FT
  • 290633Z AUTO 32005KT 6SM -RA BR SCT006 SCT026 BKN031 OVC038 13/13 A2950 RMK SLP998 DENSITY ALT 2700FT
  • 290620Z AUTO 32005KT 5SM -RA BR FEW019 SCT024 OVC038 13/13 A2949 RMK SLP997 DENSITY ALT 2700FT
  • 290617Z AUTO 33005KT 5SM -RA BR FEW019 BKN024 OVC038 13/13 A2949 RMK SLP997 DENSITY ALT 2700FT
  • 290607Z AUTO 36004KT 6SM -RA BR SCT019 OVC024 13/13 A2950 RMK SLP998 DENSITY ALT 2700FT
  • 290505Z AUTO 07006KT 4SM -RA BR FEW018 BKN024 BKN029 OVC038 13/12 A2952 RMK SLP007 DENSITY ALT 2600FT
  • 290456Z AUTO 07007KT 3SM -RA BR FEW018 BKN029 OVC038 13/12 A2953 RMK SLP008 DENSITY ALT 2600FT
  • 290451Z AUTO 07007KT 2SM RA BR FEW018 BKN029 OVC036 13/12 A2953 RMK SLP008 DENSITY ALT 2600FT
  • 290445Z AUTO 07006KT 050V140 2SM +RA BR FEW018 BKN029 OVC036 13/12 A2953 RMK VIS VRB 1 1/4-3 SLP009 DENSITY ALT 2600FT

Expired Forecast.
CZWG FIR / North America



MET'MAP, your aeronautical weather chart ! - Copyright ORBIFLY December 2007 - Disclaimer

ORBIFLY MET'MAP TEAM :

Programming & Development : Alexandra Zaïnal
Original concept : Baudouin d'Aumeries
Technical & hardware support : Manuel Goepfert
Assistance : Marc-Olivier Méhu

Contact : metmap@orbifly.com




SOURCES & CREDITS :

   NOAA       Earth
Advisory